Time;durP1;ratioP1;P1;durP2;ratioP2;P2;SDS_P1;SDS_P2;PMS_P1;PMS_P2;Temp;Humidity;BMP_temperature;BMP_pressure;BME280_temperature;BME280_humidity;BME280_pressure;Samples;Min_cycle;Max_cycle;Signal;HPM_P1;HPM_P2
2023/01/21 00:00:53;;;;;;;77.88;32.47;;;;;;;-2.80;100.00;102148.44;5058935;28;20485;-81
2023/01/21 00:03:19;;;;;;;78.88;32.28;;;;;;;-2.75;100.00;102153.38;5047031;28;20049;-80
2023/01/21 00:05:44;;;;;;;85.38;32.15;;;;;;;-2.75;100.00;102163.56;5060712;28;20041;-81
2023/01/21 00:08:10;;;;;;;84.75;31.90;;;;;;;-2.68;100.00;102164.25;5060262;28;20389;-80
2023/01/21 00:10:35;;;;;;;82.88;33.22;;;;;;;-2.72;100.00;102168.56;5046970;28;20044;-82
2023/01/21 00:13:01;;;;;;;86.95;33.78;;;;;;;-2.77;100.00;102162.75;5046771;28;20687;-80
2023/01/21 00:15:26;;;;;;;92.80;33.80;;;;;;;-2.82;100.00;102172.22;5052022;28;20106;-80
2023/01/21 00:17:53;;;;;;;74.13;30.27;;;;;;;-2.88;100.00;102172.31;5028997;28;20089;-81
2023/01/21 00:20:18;;;;;;;87.05;30.92;;;;;;;-2.91;100.00;102177.50;5041761;28;20048;-80
2023/01/21 00:22:44;;;;;;;79.95;31.38;;;;;;;-2.93;100.00;102180.06;5046703;28;20028;-81
2023/01/21 00:25:09;;;;;;;82.43;29.60;;;;;;;-2.96;100.00;102185.19;5026603;28;20045;-81
2023/01/21 00:27:35;;;;;;;72.90;28.10;;;;;;;-2.99;100.00;102196.28;5043763;28;20730;-80
2023/01/21 00:30:00;;;;;;;80.45;32.05;;;;;;;-2.98;100.00;102202.16;5035859;28;20068;-80
2023/01/21 00:32:25;;;;;;;80.90;31.30;;;;;;;-2.98;100.00;102203.00;5042973;28;20029;-81
2023/01/21 00:34:51;;;;;;;76.97;29.85;;;;;;;-3.01;100.00;102207.34;5060750;28;20052;-80
2023/01/21 00:37:16;;;;;;;71.97;29.25;;;;;;;-3.02;100.00;102209.03;5048882;28;20055;-81
2023/01/21 00:39:42;;;;;;;79.38;29.60;;;;;;;-2.97;100.00;102211.47;5038748;28;20021;-82
2023/01/21 00:42:11;;;;;;;87.28;32.10;;;;;;;-2.95;100.00;102213.09;5043558;28;20477;-81
2023/01/21 00:44:39;;;;;;;82.70;30.10;;;;;;;-2.97;100.00;102209.75;5057663;28;20043;-82
2023/01/21 00:47:05;;;;;;;75.97;29.45;;;;;;;-2.88;100.00;102213.81;5046511;28;20029;-80
2023/01/21 00:49:31;;;;;;;84.43;32.63;;;;;;;-2.84;100.00;102223.03;5044833;28;20509;-81
2023/01/21 00:51:57;;;;;;;81.18;31.17;;;;;;;-2.88;100.00;102218.03;5049279;28;20029;-81
2023/01/21 00:54:22;;;;;;;78.60;29.52;;;;;;;-2.92;100.00;102226.59;5061075;28;20060;-81
2023/01/21 00:56:48;;;;;;;75.63;28.77;;;;;;;-2.99;100.00;102243.69;5042692;28;20489;-81
2023/01/21 00:59:13;;;;;;;79.20;29.65;;;;;;;-3.03;100.00;102232.75;5044140;28;20393;-81
2023/01/21 01:01:39;;;;;;;81.20;31.67;;;;;;;-3.10;100.00;102241.34;5029903;28;20044;-81
2023/01/21 01:04:05;;;;;;;69.50;27.75;;;;;;;-3.14;100.00;102247.38;5043803;28;20052;-82
2023/01/21 01:06:31;;;;;;;74.45;29.98;;;;;;;-3.17;100.00;102248.25;5045159;28;20052;-82
2023/01/21 01:08:57;;;;;;;73.03;29.88;;;;;;;-3.20;100.00;102255.94;5047587;28;20501;-82
2023/01/21 01:11:25;;;;;;;75.72;30.13;;;;;;;-3.23;100.00;102260.25;5051067;28;20037;-82
2023/01/21 01:13:54;;;;;;;77.93;30.48;;;;;;;-3.27;100.00;102268.78;5052404;28;20047;-82
2023/01/21 01:16:21;;;;;;;79.13;30.70;;;;;;;-3.30;100.00;102261.22;5046174;28;20038;-82
2023/01/21 01:18:47;;;;;;;72.75;30.25;;;;;;;-3.33;100.00;102265.50;5055294;28;20036;-80
2023/01/21 01:21:15;;;;;;;76.75;30.85;;;;;;;-3.33;100.00;102278.19;5053954;28;20037;-81
2023/01/21 01:23:41;;;;;;;76.05;30.05;;;;;;;-3.30;100.00;102282.34;5048601;28;20029;-81
2023/01/21 01:26:10;;;;;;;69.03;29.48;;;;;;;-3.30;100.00;102281.53;5028717;28;20048;-82
2023/01/21 01:28:36;;;;;;;80.47;30.77;;;;;;;-3.30;100.00;102289.16;5050634;28;20036;-82
2023/01/21 01:31:07;;;;;;;80.80;29.40;;;;;;;-3.30;100.00;102291.69;5050045;28;20059;-81
2023/01/21 01:33:33;;;;;;;87.47;32.33;;;;;;;-3.27;100.00;102300.06;5032753;28;20398;-81
2023/01/21 01:36:05;;;;;;;78.82;31.23;;;;;;;-3.30;100.00;102301.81;5063719;28;20132;-82
2023/01/21 01:38:31;;;;;;;79.43;30.85;;;;;;;-3.33;100.00;102303.56;5049799;28;20029;-82
2023/01/21 01:40:56;;;;;;;77.28;30.08;;;;;;;-3.37;100.00;102301.09;5029512;28;20520;-82
2023/01/21 01:43:25;;;;;;;87.32;31.25;;;;;;;-3.39;100.00;102302.81;5054313;28;20037;-81
2023/01/21 01:45:51;;;;;;;81.65;30.08;;;;;;;-3.41;100.00;102307.09;5059316;28;20044;-81
2023/01/21 01:48:25;;;;;;;81.65;30.52;;;;;;;-3.45;100.00;102313.09;5033159;28;20566;-83
2023/01/21 01:50:50;;;;;;;82.47;29.17;;;;;;;-3.48;100.00;102314.00;5050394;28;20060;-82
2023/01/21 01:53:18;;;;;;;85.80;31.00;;;;;;;-3.51;100.00;102314.06;5062139;28;20029;-82
2023/01/21 01:55:46;;;;;;;87.32;32.47;;;;;;;-3.51;100.00;102319.13;5061163;28;20041;-82
2023/01/21 01:58:14;;;;;;;86.20;30.10;;;;;;;-3.53;100.00;102314.06;5032805;28;20079;-82
2023/01/21 02:00:39;;;;;;;83.63;31.70;;;;;;;-3.48;100.00;102325.81;5064777;28;20125;-82
2023/01/21 02:05:50;;;;;;;84.13;31.23;;;;;;;-3.46;100.00;102331.75;5047846;28;20033;-82
2023/01/21 02:08:16;;;;;;;93.88;31.17;;;;;;;-3.49;100.00;102332.59;5044638;28;20037;-82
2023/01/21 02:10:42;;;;;;;80.50;30.10;;;;;;;-3.49;100.00;102339.38;5060364;28;20059;-83
2023/01/21 02:13:08;;;;;;;78.13;29.15;;;;;;;-3.51;100.00;102336.88;5062413;28;20033;-81
2023/01/21 02:15:56;;;;;;;81.68;30.35;;;;;;;-3.49;100.00;102352.06;5067029;28;20033;-82
2023/01/21 02:19:15;;;;;;;85.10;33.40;;;;;;;-3.41;100.00;102357.84;5045644;28;20711;-82
2023/01/21 02:22:19;;;;;;;86.05;30.55;;;;;;;-3.48;100.00;102359.66;5022542;28;20124;-82
2023/01/21 02:25:03;;;;;;;82.38;31.83;;;;;;;-3.54;100.00;102358.06;4991855;28;20048;-82
2023/01/21 02:28:06;;;;;;;82.88;31.02;;;;;;;-3.59;100.00;102364.09;5008806;28;20076;-83
2023/01/21 02:30:40;;;;;;;85.18;31.80;;;;;;;-3.63;100.00;102370.06;5038334;28;20132;-82
2023/01/21 02:33:14;;;;;;;80.20;31.55;;;;;;;-3.66;100.00;102376.03;5041592;28;20096;-81
2023/01/21 02:35:57;;;;;;;79.13;30.58;;;;;;;-3.69;100.00;102381.16;5044854;28;20037;-82
2023/01/21 02:38:30;;;;;;;82.35;31.98;;;;;;;-3.69;100.00;102377.75;5044048;28;20776;-82
2023/01/21 02:41:16;;;;;;;90.85;33.70;;;;;;;-3.67;100.00;102376.91;5048126;28;20029;-82
2023/01/21 02:44:06;;;;;;;87.50;32.10;;;;;;;-3.64;100.00;102388.69;5048882;28;20040;-81
2023/01/21 02:46:32;;;;;;;91.22;32.88;;;;;;;-3.64;100.00;102393.75;5063831;28;20056;-83
2023/01/21 02:49:03;;;;;;;78.43;29.90;;;;;;;-3.65;100.00;102395.47;5063742;28;20051;-83
2023/01/21 02:51:28;;;;;;;84.90;32.10;;;;;;;-3.57;100.00;102397.88;5043573;28;20043;-82
2023/01/21 02:53:54;;;;;;;84.60;32.03;;;;;;;-3.61;100.00;102401.31;5044959;28;20653;-83
2023/01/21 02:56:25;;;;;;;89.55;31.38;;;;;;;-3.64;100.00;102407.25;5040018;28;20033;-82
2023/01/21 02:58:55;;;;;;;89.20;32.40;;;;;;;-3.51;100.00;102402.81;5045415;28;20115;-83
2023/01/21 03:01:45;;;;;;;81.18;31.00;;;;;;;-3.44;100.00;102404.41;5045615;28;20048;-82
2023/01/21 03:04:13;;;;;;;85.75;31.17;;;;;;;-3.40;100.00;102411.09;5045586;28;20041;-83
2023/01/21 03:06:53;;;;;;;83.70;30.75;;;;;;;-3.45;100.00;102412.03;5060601;28;20044;-82
2023/01/21 03:09:23;;;;;;;101.07;34.40;;;;;;;-3.44;100.00;102416.25;5068058;28;20071;-83
2023/01/21 03:11:56;;;;;;;95.63;34.42;;;;;;;-3.34;100.00;102410.16;5043994;28;20049;-82
2023/01/21 03:17:46;;;;;;;80.97;31.52;;;;;;;-3.29;100.00;102417.69;5050523;28;20047;-82
2023/01/21 03:20:19;;;;;;;89.20;32.10;;;;;;;-3.39;100.00;102422.91;5056921;28;20044;-82
2023/01/21 03:22:49;;;;;;;91.72;32.22;;;;;;;-3.44;100.00;102424.69;5058897;28;20032;-81
2023/01/21 03:25:16;;;;;;;80.07;31.70;;;;;;;-3.44;100.00;102427.22;5023097;28;20093;-84
2023/01/21 03:27:45;;;;;;;85.32;32.00;;;;;;;-3.44;100.00;102421.31;5044044;28;20025;-82
2023/01/21 03:30:16;;;;;;;91.00;31.88;;;;;;;-3.47;100.00;102434.88;5025216;28;20047;-83
2023/01/21 03:32:47;;;;;;;90.30;33.22;;;;;;;-3.49;100.00;102428.16;5027979;28;20029;-82
2023/01/21 03:35:19;;;;;;;88.30;32.92;;;;;;;-3.50;100.00;102423.94;5058501;28;20095;-81
2023/01/21 03:37:55;;;;;;;;;;;;;;;-3.51;100.00;102425.66;5058474;28;20033;-83
2023/01/21 03:40:22;;;;;;;91.93;32.35;;;;;;;-3.55;100.00;102427.41;5044196;28;20291;-83
2023/01/21 03:42:49;;;;;;;79.50;30.92;;;;;;;-3.56;100.00;102430.81;5046937;28;20032;-83
2023/01/21 03:45:20;;;;;;;88.40;31.70;;;;;;;-3.54;100.00;102428.25;5063586;28;20393;-82
2023/01/21 03:47:53;;;;;;;87.15;32.42;;;;;;;-3.56;100.00;102433.34;5056669;28;20033;-82
2023/01/21 03:50:30;;;;;;;83.18;32.72;;;;;;;-3.54;100.00;102433.34;5046971;28;20406;-80
2023/01/21 03:52:55;;;;;;;81.53;30.70;;;;;;;-3.55;100.00;102440.09;5046444;28;20029;-83
2023/01/21 03:55:21;;;;;;;87.22;33.38;;;;;;;-3.58;100.00;102437.63;5049003;28;20082;-83
2023/01/21 03:57:46;;;;;;;88.72;33.97;;;;;;;-3.56;100.00;102435.88;5042526;28;20087;-83
2023/01/21 04:00:12;;;;;;;92.55;33.67;;;;;;;-3.47;100.00;102436.59;5030014;28;20032;-82
2023/01/21 04:02:38;;;;;;;104.68;34.80;;;;;;;-3.54;100.00;102436.69;5028973;28;20028;-82
2023/01/21 04:05:04;;;;;;;89.00;35.08;;;;;;;-3.57;100.00;102446.06;5046430;28;20048;-83
2023/01/21 04:07:30;;;;;;;95.60;33.85;;;;;;;-3.60;100.00;102443.56;5048153;28;20489;-83
2023/01/21 04:09:55;;;;;;;86.28;33.58;;;;;;;-3.62;100.00;102451.19;5040596;28;20044;-83
2023/01/21 04:12:21;;;;;;;97.70;33.97;;;;;;;-3.54;100.00;102448.56;5046400;28;20029;-82
2023/01/21 04:14:46;;;;;;;92.20;35.40;;;;;;;-3.57;100.00;102444.34;5046704;28;20033;-82
2023/01/21 04:17:12;;;;;;;97.63;35.65;;;;;;;-3.59;100.00;102452.84;5041971;28;20033;-82
2023/01/21 04:19:37;;;;;;;103.90;34.95;;;;;;;-3.59;100.00;102453.69;5040615;28;20883;-84
2023/01/21 04:22:03;;;;;;;91.53;32.92;;;;;;;-3.58;100.00;102454.50;5047000;28;20029;-82
2023/01/21 04:24:28;;;;;;;99.90;34.35;;;;;;;-3.58;100.00;102454.50;5043595;28;20071;-83
2023/01/21 04:26:53;;;;;;;94.25;35.35;;;;;;;-3.62;100.00;102466.41;5044818;28;20501;-83
2023/01/21 04:29:19;;;;;;;99.47;34.25;;;;;;;-3.66;100.00;102472.38;5068705;28;20043;-83
2023/01/21 04:31:45;;;;;;;96.22;35.85;;;;;;;-3.64;100.00;102480.81;5028292;28;20040;-83
2023/01/21 04:34:10;;;;;;;92.97;35.00;;;;;;;-3.62;100.00;102483.31;5039233;28;20033;-83
2023/01/21 04:36:36;;;;;;;92.18;34.22;;;;;;;-3.58;100.00;102484.94;5041362;28;20535;-83
2023/01/21 04:39:01;;;;;;;102.70;37.65;;;;;;;-3.59;100.00;102481.56;5044614;28;20044;-83
2023/01/21 04:41:27;;;;;;;95.45;35.25;;;;;;;-3.55;100.00;102492.50;5047382;28;20052;-82
2023/01/21 04:43:52;;;;;;;95.38;34.53;;;;;;;-3.54;100.00;102487.44;5050256;28;20080;-82
2023/01/21 04:46:18;;;;;;;98.70;33.97;;;;;;;-3.59;100.00;102488.34;5042974;28;20051;-83
2023/01/21 04:48:43;;;;;;;101.40;34.33;;;;;;;-3.61;100.00;102495.16;5030755;28;20040;-83
2023/01/21 04:51:09;;;;;;;92.38;33.67;;;;;;;-3.55;100.00;102497.59;5043382;28;20353;-82
2023/01/21 04:53:34;;;;;;;91.50;33.92;;;;;;;-3.57;100.00;102502.69;5038238;28;20036;-84
2023/01/21 04:56:00;;;;;;;89.57;34.80;;;;;;;-3.58;100.00;102508.63;5041741;28;20044;-84
2023/01/21 04:58:26;;;;;;;95.60;35.08;;;;;;;-3.55;100.00;102505.19;5042813;28;20032;-82
2023/01/21 05:00:53;;;;;;;93.38;33.10;;;;;;;-3.50;100.00;102512.72;5027939;28;20056;-82
2023/01/21 05:03:18;;;;;;;91.50;34.90;;;;;;;-3.55;100.00;102516.16;5043740;28;20036;-83
2023/01/21 05:05:44;;;;;;;96.53;33.55;;;;;;;-3.59;100.00;102501.88;5047144;28;20037;-84
2023/01/21 05:08:09;;;;;;;91.28;34.83;;;;;;;-3.60;100.00;102506.97;5047666;28;20037;-83
2023/01/21 05:10:35;;;;;;;92.60;33.22;;;;;;;-3.57;100.00;102512.00;5048584;28;20037;-84
2023/01/21 05:13:00;;;;;;;82.25;31.15;;;;;;;-3.62;100.00;102513.75;5060430;28;20041;-83
2023/01/21 05:15:26;;;;;;;96.35;34.85;;;;;;;-3.58;100.00;102510.31;5046350;28;20045;-83
2023/01/21 05:17:51;;;;;;;89.65;34.40;;;;;;;-3.60;100.00;102517.09;5042523;28;20036;-82
2023/01/21 05:20:17;;;;;;;77.53;31.23;;;;;;;-3.60;100.00;102517.09;5042639;28;20058;-83
2023/01/21 05:22:46;;;;;;;87.88;33.47;;;;;;;-3.65;100.00;102524.78;5026605;28;20041;-84
2023/01/21 05:25:12;;;;;;;101.45;33.58;;;;;;;-3.57;100.00;102522.97;5040410;28;20067;-82
2023/01/21 05:27:37;;;;;;;91.72;34.60;;;;;;;-3.64;100.00;102526.44;5049684;28;20481;-83
2023/01/21 05:30:03;;;;;;;98.22;33.97;;;;;;;-3.65;100.00;102524.78;5062033;28;20083;-83
2023/01/21 05:32:29;;;;;;;98.43;33.28;;;;;;;-3.67;100.00;102525.66;5045708;28;20119;-83
2023/01/21 05:34:54;;;;;;;92.25;34.13;;;;;;;-3.68;100.00;102529.06;5040286;28;20037;-83
2023/01/21 05:37:20;;;;;;;95.82;34.42;;;;;;;-3.72;100.00;102530.81;5046557;28;20044;-83
2023/01/21 05:39:45;;;;;;;94.85;34.38;;;;;;;-3.72;100.00;102533.34;5043485;28;20029;-83
2023/01/21 05:42:11;;;;;;;87.47;35.17;;;;;;;-3.75;100.00;102535.91;5047940;28;20863;-83
2023/01/21 05:44:36;;;;;;;93.93;34.22;;;;;;;-3.78;100.00;102541.88;5044378;28;20052;-82
2023/01/21 05:47:02;;;;;;;105.53;35.15;;;;;;;-3.76;100.00;102540.16;5044827;28;20045;-83
2023/01/21 05:49:27;;;;;;;95.22;34.15;;;;;;;-3.74;100.00;102545.19;5051308;28;20994;-84
2023/01/21 05:51:52;;;;;;;87.82;33.33;;;;;;;-3.78;100.00;102546.09;5046503;28;20394;-84
2023/01/21 05:54:18;;;;;;;92.70;33.45;;;;;;;-3.78;100.00;102553.72;5048787;28;20452;-84
2023/01/21 05:56:43;;;;;;;95.57;34.72;;;;;;;-3.76;100.00;102552.81;5065248;28;20033;-82
2023/01/21 05:59:09;;;;;;;90.43;34.55;;;;;;;-3.78;100.00;102546.94;5053455;28;20037;-82
2023/01/21 06:01:34;;;;;;;100.82;35.20;;;;;;;-3.69;100.00;102551.06;5052449;28;20045;-83
2023/01/21 06:04:00;;;;;;;94.25;35.38;;;;;;;-3.73;100.00;102560.41;5051838;28;20048;-83
2023/01/21 06:06:25;;;;;;;94.15;35.75;;;;;;;-3.73;100.00;102557.00;5046058;28;20047;-82
2023/01/21 06:08:50;;;;;;;88.10;34.85;;;;;;;-3.79;100.00;102562.16;5051304;28;20048;-83
2023/01/21 06:11:16;;;;;;;87.40;33.95;;;;;;;-3.81;100.00;102561.34;5047345;28;20091;-82
2023/01/21 06:13:41;;;;;;;86.57;32.60;;;;;;;-3.85;100.00;102572.41;5062274;28;20497;-81
2023/01/21 06:16:07;;;;;;;94.38;35.70;;;;;;;-3.91;100.00;102565.72;5043578;28;20100;-83
2023/01/21 06:18:32;;;;;;;94.00;34.70;;;;;;;-3.93;100.00;102575.03;5055000;28;20036;-84
2023/01/21 06:20:59;;;;;;;95.95;34.92;;;;;;;-3.94;100.00;102586.88;5049991;28;20029;-82
2023/01/21 06:23:24;;;;;;;96.18;35.88;;;;;;;-3.95;100.00;102594.50;5061252;28;20116;-82
2023/01/21 06:25:50;;;;;;;93.85;36.20;;;;;;;-3.96;100.00;102602.94;5050339;28;20120;-82
2023/01/21 06:28:15;;;;;;;94.80;35.22;;;;;;;-4.02;100.00;102608.91;5051009;28;20033;-83
2023/01/21 06:30:41;;;;;;;98.78;35.25;;;;;;;-3.95;100.00;102612.25;5056881;28;20401;-84
2023/01/21 06:33:07;;;;;;;94.88;36.92;;;;;;;-3.94;100.00;102613.91;5061835;28;20060;-83
2023/01/21 06:35:33;;;;;;;104.60;35.63;;;;;;;-3.94;100.00;102618.97;5044753;28;20037;-82
2023/01/21 06:37:58;;;;;;;89.95;34.40;;;;;;;-3.99;100.00;102621.56;5048655;28;20047;-82
2023/01/21 06:40:24;;;;;;;99.47;36.05;;;;;;;-4.03;100.00;102627.53;5046482;28;20033;-83
2023/01/21 06:42:50;;;;;;;103.53;38.35;;;;;;;-4.04;100.00;102627.56;5053153;28;20028;-83
2023/01/21 06:45:16;;;;;;;93.57;35.65;;;;;;;-4.05;100.00;102636.84;5041819;28;20789;-83
2023/01/21 06:47:43;;;;;;;95.00;35.42;;;;;;;-4.08;100.00;102641.94;5048876;28;20079;-83
2023/01/21 06:50:14;;;;;;;99.00;36.40;;;;;;;-4.11;100.00;102639.44;5041654;28;20066;-83
2023/01/21 06:52:44;;;;;;;94.18;34.65;;;;;;;-4.12;100.00;102637.78;5047176;28;20036;-84
2023/01/21 06:55:11;;;;;;;102.53;36.70;;;;;;;-4.15;100.00;102635.25;5047727;28;20044;-84
2023/01/21 06:57:37;;;;;;;94.40;34.47;;;;;;;-4.18;100.00;102646.28;5044165;28;20049;-83
2023/01/21 07:00:04;;;;;;;98.45;35.95;;;;;;;-4.21;100.00;102648.00;5045957;28;20401;-84
2023/01/21 07:02:29;;;;;;;98.65;37.30;;;;;;;-4.23;100.00;102652.25;5060991;28;20049;-84
2023/01/21 07:04:55;;;;;;;100.10;35.90;;;;;;;-4.25;100.00;102664.09;5048073;28;20032;-83
2023/01/21 07:07:20;;;;;;;102.97;36.97;;;;;;;-4.27;100.00;102664.09;5048440;28;20489;-83
2023/01/21 07:09:45;;;;;;;114.93;37.50;;;;;;;-4.30;100.00;102659.88;5043772;28;20033;-83
2023/01/21 07:12:11;;;;;;;100.82;37.22;;;;;;;-4.30;100.00;102664.94;5061390;28;20040;-83
2023/01/21 07:14:36;;;;;;;107.07;38.03;;;;;;;-4.34;100.00;102665.84;5050375;28;20029;-83
2023/01/21 07:17:02;;;;;;;100.65;36.63;;;;;;;-4.35;100.00;102671.78;5051346;28;20079;-84
2023/01/21 07:19:27;;;;;;;99.60;35.33;;;;;;;-4.37;100.00;102672.63;5046941;28;20062;-83
2023/01/21 07:21:53;;;;;;;99.15;36.67;;;;;;;-4.37;100.00;102675.16;5048919;28;20026;-83
2023/01/21 07:24:19;;;;;;;99.60;36.95;;;;;;;-4.39;100.00;102680.25;5045776;28;20040;-84
2023/01/21 07:26:47;;;;;;;97.60;36.30;;;;;;;-4.38;100.00;102676.03;5045679;28;20056;-84
2023/01/21 07:29:12;;;;;;;101.85;36.90;;;;;;;-4.33;100.00;102684.44;5059398;28;20425;-82
2023/01/21 07:31:38;;;;;;;100.18;37.63;;;;;;;-4.28;100.00;102692.81;5044013;28;20033;-84
2023/01/21 07:34:03;;;;;;;110.32;39.70;;;;;;;-4.23;100.00;102686.00;5047246;28;20409;-83
2023/01/21 07:36:29;;;;;;;110.65;39.13;;;;;;;-4.19;100.00;102692.72;5027551;28;20039;-83
2023/01/21 07:38:55;;;;;;;106.82;37.22;;;;;;;-4.21;100.00;102699.50;5058266;28;20040;-84
2023/01/21 07:41:20;;;;;;;108.45;37.42;;;;;;;-4.22;100.00;102694.44;5047890;28;20029;-84
2023/01/21 07:43:47;;;;;;;104.65;38.22;;;;;;;-4.17;100.00;102703.69;5046221;28;20370;-83
2023/01/21 07:46:15;;;;;;;129.30;43.35;;;;;;;-4.04;100.00;102701.88;5050672;28;20095;-83
2023/01/21 07:48:40;;;;;;;169.23;56.45;;;;;;;-4.09;100.00;102705.31;5061559;28;20048;-84
2023/01/21 07:51:06;;;;;;;108.57;40.38;;;;;;;-4.09;100.00;102711.22;5038463;28;20037;-83
2023/01/21 07:53:31;;;;;;;102.03;37.40;;;;;;;-4.07;100.00;102718.81;5043626;28;20033;-83
2023/01/21 07:55:57;;;;;;;113.30;38.97;;;;;;;-4.05;100.00;102722.16;5048941;28;20474;-83
2023/01/21 07:58:22;;;;;;;116.40;37.97;;;;;;;-4.04;100.00;102724.69;5045257;28;20055;-83
2023/01/21 08:00:47;;;;;;;103.18;37.33;;;;;;;-4.02;100.00;102722.16;5040620;28;20051;-83
2023/01/21 08:03:13;;;;;;;100.72;36.72;;;;;;;-4.05;100.00;102720.50;5040856;28;20025;-82
2023/01/21 08:05:38;;;;;;;107.43;36.78;;;;;;;-3.97;100.00;102730.56;5057588;28;20041;-82
2023/01/21 08:08:04;;;;;;;103.15;36.60;;;;;;;-3.98;100.00;102731.38;5062463;28;20048;-84
2023/01/21 08:10:29;;;;;;;111.50;36.47;;;;;;;-3.97;100.00;102733.91;5051500;28;20044;-83
2023/01/21 08:12:55;;;;;;;96.20;34.92;;;;;;;-3.98;100.00;102739.00;5046126;28;20037;-83
2023/01/21 08:15:21;;;;;;;103.78;37.25;;;;;;;-4.00;100.00;102738.19;5045518;28;20045;-82
2023/01/21 08:17:47;;;;;;;104.43;36.88;;;;;;;-3.99;100.00;102745.78;5046781;28;20321;-83
2023/01/21 08:20:14;;;;;;;96.72;35.88;;;;;;;-3.99;100.00;102750.84;5047169;28;20177;-83
2023/01/21 08:22:39;;;;;;;106.80;37.92;;;;;;;-3.93;100.00;102749.94;5053235;28;20037;-82
2023/01/21 08:25:05;;;;;;;114.65;37.88;;;;;;;-3.90;100.00;102749.88;5046031;28;20068;-83
2023/01/21 08:27:31;;;;;;;107.57;37.30;;;;;;;-3.86;100.00;102756.63;5043445;28;20031;-84
2023/01/21 08:29:57;;;;;;;107.88;39.10;;;;;;;-3.84;100.00;102754.91;5047744;28;20270;-83
2023/01/21 08:32:23;;;;;;;118.63;39.00;;;;;;;-3.78;100.00;102759.09;5043991;28;20119;-83
2023/01/21 08:34:49;;;;;;;110.65;39.20;;;;;;;-3.71;100.00;102748.03;5042622;28;20040;-83
2023/01/21 08:37:16;;;;;;;110.38;39.92;;;;;;;-3.69;100.00;102750.53;5047282;28;20413;-83
2023/01/21 08:39:41;;;;;;;120.20;40.88;;;;;;;-3.65;100.00;102754.75;5046619;28;20047;-83
2023/01/21 08:42:07;;;;;;;115.20;39.30;;;;;;;-3.62;100.00;102758.06;5046552;28;20025;-83
2023/01/21 08:44:34;;;;;;;150.55;52.92;;;;;;;-3.45;100.00;102759.56;5045058;28;20040;-84
2023/01/21 08:46:59;;;;;;;116.50;41.22;;;;;;;-3.44;100.00;102767.16;5031594;28;20661;-82
2023/01/21 08:49:25;;;;;;;116.97;39.90;;;;;;;-3.40;100.00;102773.06;5049926;28;20037;-83
2023/01/21 08:51:50;;;;;;;129.20;47.33;;;;;;;-3.29;100.00;102780.53;5047465;28;20045;-82
2023/01/21 08:54:16;;;;;;;117.43;42.63;;;;;;;-3.27;100.00;102786.44;5041656;28;20028;-83
2023/01/21 08:56:41;;;;;;;122.13;41.47;;;;;;;-3.19;100.00;102792.25;5046107;28;20131;-83
2023/01/21 08:59:07;;;;;;;133.77;43.90;;;;;;;-3.08;100.00;102792.13;5038614;28;20028;-83
2023/01/21 09:01:34;;;;;;;129.27;43.90;;;;;;;-3.03;100.00;102801.38;5055784;28;20071;-83
2023/01/21 09:04:00;;;;;;;145.02;48.63;;;;;;;-3.07;100.00;102797.19;5068277;28;20024;-82
2023/01/21 09:06:28;;;;;;;136.45;43.72;;;;;;;-2.99;100.00;102803.00;5046639;28;20170;-83
2023/01/21 09:08:55;;;;;;;136.57;46.53;;;;;;;-2.97;100.00;102810.59;5062608;28;20032;-84
2023/01/21 09:11:21;;;;;;;115.68;41.38;;;;;;;-3.01;100.00;102812.34;5038478;28;20048;-83
2023/01/21 09:13:46;;;;;;;122.57;42.63;;;;;;;-2.92;100.00;102820.69;5026429;28;20037;-83
2023/01/21 09:16:17;;;;;;;137.15;45.05;;;;;;;-2.93;100.00;102824.94;5043470;28;20516;-82
2023/01/21 09:18:43;;;;;;;140.77;58.33;;;;;;;-2.86;100.00;102829.09;5058991;28;20064;-82
2023/01/21 09:21:10;;;;;;;129.90;48.97;;;;;;;-2.83;100.00;102820.56;5046073;28;20060;-83
2023/01/21 09:23:37;;;;;;;124.03;41.60;;;;;;;-2.79;100.00;102830.69;5040908;28;20037;-82
2023/01/21 09:26:12;;;;;;;120.35;41.38;;;;;;;-2.85;100.00;102842.63;5067485;28;20509;-83
2023/01/21 09:28:41;;;;;;;115.88;39.85;;;;;;;-2.86;100.00;102836.72;5049356;28;20501;-83
2023/01/21 09:31:09;;;;;;;118.38;40.20;;;;;;;-2.84;100.00;102846.84;5046773;28;20362;-82
2023/01/21 09:33:36;;;;;;;129.93;42.97;;;;;;;-2.84;100.00;102842.59;5065085;28;20043;-82
2023/01/21 09:36:05;;;;;;;116.88;39.30;;;;;;;-2.80;100.00;102846.78;5048101;28;20083;-81
2023/01/21 09:38:30;;;;;;;129.32;41.80;;;;;;;-2.72;100.00;102856.00;5052654;28;20037;-82
2023/01/21 09:41:04;;;;;;;121.30;41.08;;;;;;;-2.68;100.00;102865.25;5061834;28;20046;-83
2023/01/21 09:43:41;;;;;;;120.32;39.67;;;;;;;-2.72;100.00;102864.44;5050738;28;20036;-83
2023/01/21 09:46:16;;;;;;;117.53;42.53;;;;;;;-2.71;100.00;102861.06;5044180;28;20059;-81
2023/01/21 09:48:46;;;;;;;117.57;42.47;;;;;;;-2.63;100.00;102868.59;5051982;28;20171;-81
2023/01/21 09:51:21;;;;;;;124.13;41.58;;;;;;;-2.62;100.00;102865.16;5028440;28;20120;-81
2023/01/21 09:53:56;;;;;;;133.95;42.85;;;;;;;-2.64;100.00;102872.81;5050220;28;20079;-82
2023/01/21 09:56:35;;;;;;;117.03;41.10;;;;;;;-2.60;100.00;102874.47;5043716;28;20119;-82
2023/01/21 09:59:14;;;;;;;117.15;44.03;;;;;;;-2.51;100.00;102873.47;5067358;28;20063;-82
2023/01/21 10:01:41;;;;;;;119.65;41.45;;;;;;;-2.46;100.00;102876.81;5044974;28;20045;-82
2023/01/21 10:04:42;;;;;;;115.88;39.20;;;;;;;-2.51;100.00;102880.28;5048064;28;20041;-82
2023/01/21 10:07:15;;;;;;;118.93;41.83;;;;;;;-2.43;100.00;102874.25;5046247;28;20037;-81
2023/01/21 10:09:46;;;;;;;;;;;;;;;-2.41;100.00;102861.50;5032304;28;20043;-82
2023/01/21 10:12:19;;;;;;;123.43;40.95;;;;;;;-2.40;100.00;102876.72;5056726;28;20412;-81
2023/01/21 10:15:02;;;;;;;;;;;;;;;-2.40;100.00;102875.88;5062110;28;20040;-83
2023/01/21 10:17:51;;;;;;;120.03;40.13;;;;;;;-2.40;100.00;102881.81;5061168;28;20020;-82
2023/01/21 10:20:30;;;;;;;111.18;38.65;;;;;;;-2.35;100.00;102867.34;5045143;28;20037;-82
2023/01/21 10:23:02;;;;;;;103.82;36.63;;;;;;;-2.35;100.00;102864.78;5060399;28;20044;-82
2023/01/21 10:25:32;;;;;;;112.07;38.97;;;;;;;-2.26;100.00;102874.00;5061945;28;20041;-80
2023/01/21 10:28:08;;;;;;;103.70;36.33;;;;;;;-2.14;100.00;102862.81;5062181;28;20658;-80
2023/01/21 10:30:41;;;;;;;102.35;37.35;;;;;;;-2.12;100.00;102865.31;5049148;28;20079;-81
2023/01/21 10:33:16;;;;;;;107.88;37.60;;;;;;;-2.14;100.00;102864.50;5059151;28;20116;-81
2023/01/21 10:35:59;;;;;;;100.63;35.88;;;;;;;-2.15;100.00;102863.66;5044989;28;20068;-79
2023/01/21 10:38:33;;;;;;;98.00;35.80;;;;;;;-2.03;100.00;102858.38;5059085;28;20033;-80
2023/01/21 10:41:26;;;;;;;98.57;34.42;;;;;;;-2.06;100.00;102855.88;5048538;28;20116;-80
2023/01/21 10:44:07;;;;;;;109.35;36.13;;;;;;;-1.98;100.00;102863.38;5061288;28;20521;-80
2023/01/21 10:46:44;;;;;;;101.35;36.58;;;;;;;-1.94;100.00;102861.63;5029286;28;20119;-80
2023/01/21 10:49:33;;;;;;;97.07;33.72;;;;;;;-1.86;100.00;102863.22;5049322;28;20075;-79
2023/01/21 10:52:02;;;;;;;101.45;33.53;;;;;;;-1.85;100.00;102856.41;5041602;28;20512;-80
2023/01/21 10:54:42;;;;;;;92.00;33.17;;;;;;;-1.90;100.00;102859.03;5052176;28;20090;-79
2023/01/21 10:57:29;;;;;;;102.72;35.95;;;;;;;-1.86;100.00;102864.91;5045220;28;20049;-80
2023/01/21 10:59:59;;;;;;;101.90;34.60;;;;;;;-1.85;100.00;102864.88;5026820;28;20126;-81
2023/01/21 11:02:32;;;;;;;103.25;36.15;;;;;;;-1.85;100.00;102859.78;5042972;28;20033;-81
2023/01/21 11:05:02;;;;;;;107.53;36.75;;;;;;;-1.80;100.00;102864.81;5026091;28;20044;-79
2023/01/21 11:07:33;;;;;;;100.15;35.90;;;;;;;-1.79;100.00;102866.47;5026098;28;20041;-79
2023/01/21 11:10:00;;;;;;;109.10;35.75;;;;;;;-1.79;100.00;102857.16;5039751;28;20048;-78
2023/01/21 11:12:25;;;;;;;113.60;36.50;;;;;;;-1.59;100.00;102856.78;5047509;28;20094;-81